Time;durP1;ratioP1;P1;durP2;ratioP2;P2;SDS_P1;SDS_P2;PMS_P1;PMS_P2;Temp;Humidity;BMP_temperature;BMP_pressure;BME280_temperature;BME280_humidity;BME280_pressure;Samples;Min_cycle;Max_cycle;Signal;HPM_P1;HPM_P2
2023/01/25 00:02:07;;;;;;;317.77;68.90;;;;;;;;;;5118690;28;20639;-73
2023/01/25 00:04:35;;;;;;;317.58;96.70;;;;;;;;;;5118483;28;20212;-73
2023/01/25 00:07:02;;;;;;;315.92;69.93;;;;;;;;;;5134918;27;20207;-73
2023/01/25 00:09:30;;;;;;;265.13;69.15;;;;;;;;;;5138447;27;20641;-73
2023/01/25 00:11:57;;;;;;;276.75;71.82;;;;;;;;;;5139125;27;20208;-73
2023/01/25 00:14:25;;;;;;;258.95;64.35;;;;;;;;;;5117672;28;20213;-73
2023/01/25 00:16:54;;;;;;;260.55;65.18;;;;;;;;;;5118185;27;20203;-73
2023/01/25 00:19:25;;;;;;;281.38;66.43;;;;;;;;;;5118437;28;20212;-73
2023/01/25 00:21:53;;;;;;;306.65;79.22;;;;;;;;;;5117931;28;20296;-73
2023/01/25 00:24:24;;;;;;;318.63;91.65;;;;;;;;;;5118454;28;20201;-73
2023/01/25 00:26:52;;;;;;;272.02;71.60;;;;;;;;;;5136360;27;20580;-73
2023/01/25 00:29:19;;;;;;;262.83;70.97;;;;;;;;;;5139111;27;20218;-73
2023/01/25 00:31:51;;;;;;;296.70;100.68;;;;;;;;;;5138731;27;20682;-73
2023/01/25 00:34:39;;;;;;;289.20;78.72;;;;;;;;;;5139161;27;20200;-73
2023/01/25 00:37:13;;;;;;;264.33;74.40;;;;;;;;;;5138830;27;20208;-73
2023/01/25 00:39:41;;;;;;;259.85;67.65;;;;;;;;;;5128758;27;20198;-73
2023/01/25 00:42:10;;;;;;;243.90;61.47;;;;;;;;;;5118168;28;20208;-73
2023/01/25 00:44:38;;;;;;;254.63;63.53;;;;;;;;;;5118057;28;20208;-73
2023/01/25 00:47:05;;;;;;;257.65;63.05;;;;;;;;;;5118114;28;20300;-73
2023/01/25 00:49:33;;;;;;;254.05;66.93;;;;;;;;;;5119500;27;20208;-73
2023/01/25 00:52:02;;;;;;;255.98;69.80;;;;;;;;;;5138377;27;20277;-73
2023/01/25 00:54:30;;;;;;;255.40;64.88;;;;;;;;;;5139003;27;20230;-73
2023/01/25 00:56:57;;;;;;;251.95;61.85;;;;;;;;;;5138493;27;20200;-73
2023/01/25 00:59:25;;;;;;;259.08;64.68;;;;;;;;;;5138683;27;20200;-73
2023/01/25 01:01:54;;;;;;;254.32;64.47;;;;;;;;;;5138480;27;20528;-73
2023/01/25 01:04:23;;;;;;;253.73;63.20;;;;;;;;;;5137685;27;20200;-73
2023/01/25 01:06:51;;;;;;;259.70;65.07;;;;;;;;;;5137790;27;20196;-74
2023/01/25 01:09:20;;;;;;;256.40;64.05;;;;;;;;;;5136015;27;20197;-73
2023/01/25 01:11:49;;;;;;;251.57;62.65;;;;;;;;;;5137284;27;20219;-73
2023/01/25 01:14:22;;;;;;;256.38;62.25;;;;;;;;;;5138157;27;20204;-73
2023/01/25 01:16:50;;;;;;;255.40;63.83;;;;;;;;;;5137857;27;20281;-73
2023/01/25 01:19:17;;;;;;;257.60;67.38;;;;;;;;;;5136737;27;20200;-73
2023/01/25 01:21:45;;;;;;;257.90;67.65;;;;;;;;;;5137897;27;20446;-73
2023/01/25 01:24:16;;;;;;;249.05;70.00;;;;;;;;;;5137257;27;20199;-73
2023/01/25 01:26:48;;;;;;;278.85;94.90;;;;;;;;;;5137263;27;20200;-73
2023/01/25 01:29:20;;;;;;;296.90;94.70;;;;;;;;;;5137927;27;20265;-73
2023/01/25 01:31:51;;;;;;;290.45;103.75;;;;;;;;;;5126018;27;20700;-73
2023/01/25 01:34:19;;;;;;;301.25;72.38;;;;;;;;;;5127158;27;20196;-73
2023/01/25 01:36:48;;;;;;;275.63;89.85;;;;;;;;;;5138076;27;20232;-73
2023/01/25 01:39:16;;;;;;;307.77;68.10;;;;;;;;;;5138038;27;20464;-73
2023/01/25 01:41:44;;;;;;;307.67;68.53;;;;;;;;;;5137853;27;20211;-73
2023/01/25 01:44:17;;;;;;;311.58;68.40;;;;;;;;;;5137874;27;20219;-73
2023/01/25 01:46:53;;;;;;;308.05;116.00;;;;;;;;;;5137844;27;20200;-73
2023/01/25 01:49:23;;;;;;;310.33;67.95;;;;;;;;;;5137779;27;20239;-73
2023/01/25 01:51:51;;;;;;;313.70;70.80;;;;;;;;;;5137717;27;20224;-73
2023/01/25 01:54:23;;;;;;;298.70;98.72;;;;;;;;;;5138174;27;20223;-73
2023/01/25 01:56:52;;;;;;;276.10;78.00;;;;;;;;;;5137958;27;20592;-73
2023/01/25 01:59:23;;;;;;;277.88;80.22;;;;;;;;;;5122628;27;20204;-73
2023/01/25 02:01:55;;;;;;;276.00;74.13;;;;;;;;;;5116787;28;20197;-73
2023/01/25 02:04:25;;;;;;;268.35;76.13;;;;;;;;;;5116779;28;20201;-74
2023/01/25 02:06:55;;;;;;;295.60;78.97;;;;;;;;;;5116981;28;20200;-73
2023/01/25 02:09:24;;;;;;;283.70;97.85;;;;;;;;;;5116265;28;20201;-73
2023/01/25 02:11:55;;;;;;;286.35;102.30;;;;;;;;;;5116061;28;20224;-73
2023/01/25 02:14:24;;;;;;;312.85;69.57;;;;;;;;;;5117109;28;20258;-73
2023/01/25 02:16:52;;;;;;;290.42;80.18;;;;;;;;;;5116513;28;20266;-73
2023/01/25 02:19:23;;;;;;;259.63;65.20;;;;;;;;;;5116217;28;20708;-74
2023/01/25 02:21:52;;;;;;;250.57;64.38;;;;;;;;;;5117007;28;20197;-73
2023/01/25 02:24:23;;;;;;;257.08;63.65;;;;;;;;;;5116610;28;20292;-73
2023/01/25 02:26:52;;;;;;;248.85;62.80;;;;;;;;;;5116768;28;20205;-74
2023/01/25 02:29:22;;;;;;;244.65;62.65;;;;;;;;;;5125005;27;20197;-74
2023/01/25 02:31:51;;;;;;;250.68;63.13;;;;;;;;;;5137208;27;20234;-72
2023/01/25 02:34:18;;;;;;;233.52;59.97;;;;;;;;;;5137144;27;20282;-74
2023/01/25 02:36:46;;;;;;;239.40;61.50;;;;;;;;;;5138763;27;20208;-74
2023/01/25 02:39:17;;;;;;;250.82;61.03;;;;;;;;;;5134599;27;20211;-74
2023/01/25 02:41:45;;;;;;;258.13;68.68;;;;;;;;;;5120885;28;20207;-74
2023/01/25 02:44:15;;;;;;;251.27;64.30;;;;;;;;;;5120990;28;20287;-73
2023/01/25 02:46:43;;;;;;;241.55;62.35;;;;;;;;;;5120441;28;20303;-73
2023/01/25 02:49:11;;;;;;;246.95;61.53;;;;;;;;;;5120424;27;20657;-73
2023/01/25 02:51:40;;;;;;;254.25;65.05;;;;;;;;;;5119697;28;20633;-73
2023/01/25 02:54:08;;;;;;;241.95;61.22;;;;;;;;;;5119842;28;20212;-73
2023/01/25 02:56:36;;;;;;;240.18;59.45;;;;;;;;;;5120355;28;20577;-74
2023/01/25 02:59:04;;;;;;;254.90;66.97;;;;;;;;;;5124199;27;20202;-73
2023/01/25 03:01:34;;;;;;;244.00;62.63;;;;;;;;;;5140781;27;20249;-74
2023/01/25 03:04:01;;;;;;;247.05;61.78;;;;;;;;;;5140720;27;20200;-73
2023/01/25 03:06:29;;;;;;;255.90;67.93;;;;;;;;;;5139946;27;20278;-73
2023/01/25 03:09:03;;;;;;;243.77;61.90;;;;;;;;;;5136914;27;20193;-73
2023/01/25 03:11:31;;;;;;;264.92;91.20;;;;;;;;;;5119950;28;20229;-73
2023/01/25 03:13:59;;;;;;;255.98;84.88;;;;;;;;;;5120213;28;20228;-73
2023/01/25 03:16:27;;;;;;;253.40;64.00;;;;;;;;;;5119811;28;20207;-73
2023/01/25 03:18:56;;;;;;;259.27;72.50;;;;;;;;;;5119787;28;20251;-74
2023/01/25 03:21:24;;;;;;;262.75;74.35;;;;;;;;;;5127827;27;20249;-73
2023/01/25 03:23:56;;;;;;;254.73;66.50;;;;;;;;;;5128718;27;20193;-73
2023/01/25 03:26:24;;;;;;;249.23;64.22;;;;;;;;;;5119950;27;20212;-74
2023/01/25 03:28:52;;;;;;;250.65;64.90;;;;;;;;;;5121525;27;20278;-74
2023/01/25 03:31:19;;;;;;;250.50;64.65;;;;;;;;;;5122248;27;20222;-74
2023/01/25 03:33:48;;;;;;;240.45;62.22;;;;;;;;;;5140075;27;20207;-74
2023/01/25 03:36:17;;;;;;;247.25;63.15;;;;;;;;;;5139581;27;20278;-73
2023/01/25 03:38:45;;;;;;;243.70;64.00;;;;;;;;;;5140332;27;20268;-73
2023/01/25 03:41:13;;;;;;;247.15;63.08;;;;;;;;;;5138895;27;20490;-73
2023/01/25 03:43:41;;;;;;;258.67;63.30;;;;;;;;;;5140045;27;20210;-73
2023/01/25 03:46:08;;;;;;;254.70;66.63;;;;;;;;;;5139610;27;20655;-73
2023/01/25 03:48:36;;;;;;;262.80;64.85;;;;;;;;;;5139554;27;20204;-73
2023/01/25 03:51:04;;;;;;;254.43;63.40;;;;;;;;;;5139130;27;20551;-73
2023/01/25 03:53:33;;;;;;;248.88;62.30;;;;;;;;;;5139209;27;20211;-73
2023/01/25 03:56:02;;;;;;;253.27;66.60;;;;;;;;;;5139413;27;20192;-73
2023/01/25 03:58:30;;;;;;;262.70;74.43;;;;;;;;;;5138678;27;20200;-73
2023/01/25 04:00:59;;;;;;;266.75;73.38;;;;;;;;;;5118568;28;20300;-73
2023/01/25 04:03:27;;;;;;;252.65;65.65;;;;;;;;;;5118718;28;20201;-73
2023/01/25 04:05:55;;;;;;;251.05;66.05;;;;;;;;;;5118543;28;20201;-74
2023/01/25 04:08:23;;;;;;;250.80;62.50;;;;;;;;;;5118617;27;20201;-73
2023/01/25 04:10:53;;;;;;;251.15;64.47;;;;;;;;;;5118571;28;20240;-73
2023/01/25 04:13:20;;;;;;;255.23;64.55;;;;;;;;;;5118587;28;20266;-73
2023/01/25 04:15:49;;;;;;;250.98;65.75;;;;;;;;;;5118248;28;20208;-74
2023/01/25 04:18:17;;;;;;;253.30;66.38;;;;;;;;;;5119644;27;20204;-74
2023/01/25 04:20:45;;;;;;;258.48;67.40;;;;;;;;;;5138227;27;20197;-74
2023/01/25 04:23:13;;;;;;;242.93;62.92;;;;;;;;;;5137907;27;20447;-74
2023/01/25 04:25:41;;;;;;;249.13;63.45;;;;;;;;;;5138132;27;20193;-74
2023/01/25 04:28:10;;;;;;;244.43;60.75;;;;;;;;;;5137954;27;20208;-74
2023/01/25 04:30:39;;;;;;;249.32;65.43;;;;;;;;;;5117533;28;20193;-74
2023/01/25 04:33:07;;;;;;;238.52;60.28;;;;;;;;;;5118007;28;20251;-74
2023/01/25 04:35:34;;;;;;;250.85;62.67;;;;;;;;;;5117388;28;20197;-74
2023/01/25 04:38:05;;;;;;;252.05;62.28;;;;;;;;;;5118109;28;20200;-74
2023/01/25 04:40:33;;;;;;;252.73;61.60;;;;;;;;;;5117403;28;20209;-74
2023/01/25 04:43:00;;;;;;;245.20;60.13;;;;;;;;;;5117544;28;20277;-74
2023/01/25 04:45:29;;;;;;;240.70;60.20;;;;;;;;;;5117611;28;20204;-74
2023/01/25 04:47:58;;;;;;;253.82;63.55;;;;;;;;;;5117793;28;20211;-74
2023/01/25 04:50:25;;;;;;;254.57;63.15;;;;;;;;;;5122643;27;20223;-74
2023/01/25 04:52:54;;;;;;;242.40;60.92;;;;;;;;;;5138470;27;20223;-74
2023/01/25 04:55:21;;;;;;;241.70;63.15;;;;;;;;;;5138346;27;20261;-74
2023/01/25 04:57:50;;;;;;;256.80;63.83;;;;;;;;;;5138248;27;20221;-74
2023/01/25 05:00:19;;;;;;;240.25;63.10;;;;;;;;;;5119433;27;20230;-74
2023/01/25 05:02:48;;;;;;;240.80;61.67;;;;;;;;;;5116920;28;20753;-73
2023/01/25 05:05:16;;;;;;;253.80;64.57;;;;;;;;;;5117516;28;20201;-73
2023/01/25 05:07:44;;;;;;;247.48;60.90;;;;;;;;;;5122983;27;20192;-74
2023/01/25 05:10:12;;;;;;;252.57;62.58;;;;;;;;;;5138091;27;20211;-73
2023/01/25 05:12:39;;;;;;;248.75;62.90;;;;;;;;;;5137272;27;20216;-73
2023/01/25 05:15:08;;;;;;;246.18;61.33;;;;;;;;;;5137897;27;20200;-73
2023/01/25 05:17:35;;;;;;;251.15;62.78;;;;;;;;;;5132281;27;20193;-73
2023/01/25 05:20:05;;;;;;;237.10;59.83;;;;;;;;;;5123726;27;20208;-73
2023/01/25 05:22:32;;;;;;;253.65;63.05;;;;;;;;;;5137486;27;20196;-73
2023/01/25 05:25:01;;;;;;;251.05;61.35;;;;;;;;;;5137663;27;20200;-74
2023/01/25 05:27:28;;;;;;;243.48;59.97;;;;;;;;;;5122806;27;20211;-73
2023/01/25 05:29:57;;;;;;;247.48;64.18;;;;;;;;;;5137918;27;20196;-74
2023/01/25 05:32:25;;;;;;;246.50;62.92;;;;;;;;;;5138014;27;20228;-74
2023/01/25 05:34:56;;;;;;;241.10;64.43;;;;;;;;;;5139510;27;20521;-73
2023/01/25 05:37:25;;;;;;;255.85;68.47;;;;;;;;;;5138996;27;20193;-73
2023/01/25 05:39:53;;;;;;;251.65;63.65;;;;;;;;;;5137304;27;20211;-73
2023/01/25 05:42:21;;;;;;;239.45;59.70;;;;;;;;;;5120023;27;20208;-73
2023/01/25 05:44:48;;;;;;;238.90;62.05;;;;;;;;;;5116995;28;20197;-73
2023/01/25 05:47:17;;;;;;;243.48;61.67;;;;;;;;;;5117627;27;20204;-73
2023/01/25 05:49:44;;;;;;;249.90;62.90;;;;;;;;;;5136658;27;20207;-74
2023/01/25 05:52:14;;;;;;;245.35;61.15;;;;;;;;;;5137486;27;20216;-72
2023/01/25 05:54:43;;;;;;;244.60;61.53;;;;;;;;;;5136569;27;20192;-74
2023/01/25 05:57:11;;;;;;;252.23;66.07;;;;;;;;;;5136287;27;20261;-73
2023/01/25 05:59:39;;;;;;;244.55;65.40;;;;;;;;;;5116403;28;20204;-74
2023/01/25 06:02:06;;;;;;;246.68;61.92;;;;;;;;;;5118646;28;20201;-74
2023/01/25 06:04:35;;;;;;;245.63;63.50;;;;;;;;;;5136526;27;20192;-74
2023/01/25 06:07:03;;;;;;;251.20;63.55;;;;;;;;;;5116382;28;20283;-74
2023/01/25 06:09:34;;;;;;;242.30;61.55;;;;;;;;;;5116965;28;20273;-74
2023/01/25 06:12:05;;;;;;;236.20;59.85;;;;;;;;;;5119667;28;20285;-76
2023/01/25 06:14:36;;;;;;;244.90;63.63;;;;;;;;;;5120276;28;20201;-74
2023/01/25 06:17:03;;;;;;;246.77;63.70;;;;;;;;;;5120086;28;20197;-74
2023/01/25 06:19:31;;;;;;;237.77;60.88;;;;;;;;;;5119320;27;20288;-74
2023/01/25 06:21:58;;;;;;;241.95;63.95;;;;;;;;;;5118088;28;20209;-74
2023/01/25 06:24:26;;;;;;;251.40;66.45;;;;;;;;;;5119155;28;20201;-74
2023/01/25 06:26:54;;;;;;;247.38;65.50;;;;;;;;;;5117842;28;20657;-73
2023/01/25 06:29:23;;;;;;;241.93;64.50;;;;;;;;;;5119384;27;20189;-73
2023/01/25 06:31:51;;;;;;;253.18;63.80;;;;;;;;;;5118572;28;20229;-73
2023/01/25 06:34:21;;;;;;;249.18;63.33;;;;;;;;;;5122150;27;20200;-73
2023/01/25 06:36:51;;;;;;;242.93;64.50;;;;;;;;;;5135969;27;20202;-72
2023/01/25 06:39:22;;;;;;;247.98;64.70;;;;;;;;;;5128629;27;20682;-75
2023/01/25 06:41:53;;;;;;;251.95;64.57;;;;;;;;;;5132372;27;20185;-73
2023/01/25 06:44:28;;;;;;;251.07;65.20;;;;;;;;;;5127872;27;20200;-72
2023/01/25 06:47:01;;;;;;;251.25;67.15;;;;;;;;;;5138282;27;20512;-72
2023/01/25 06:49:33;;;;;;;247.95;64.90;;;;;;;;;;5137165;27;20197;-73
2023/01/25 06:52:01;;;;;;;240.13;62.22;;;;;;;;;;5137397;27;20220;-73
2023/01/25 06:54:29;;;;;;;251.27;64.43;;;;;;;;;;5135984;27;20720;-73
2023/01/25 06:56:57;;;;;;;248.95;65.30;;;;;;;;;;5122349;27;20204;-73
2023/01/25 06:59:26;;;;;;;245.73;62.53;;;;;;;;;;5135529;27;20196;-73
2023/01/25 07:01:53;;;;;;;242.35;65.50;;;;;;;;;;5132986;27;20196;-73
2023/01/25 07:04:22;;;;;;;256.15;73.45;;;;;;;;;;5118468;27;20193;-74
2023/01/25 07:06:49;;;;;;;243.57;64.70;;;;;;;;;;5117173;28;20288;-73
2023/01/25 07:09:23;;;;;;;241.20;65.78;;;;;;;;;;5118467;27;20710;-74
2023/01/25 07:11:56;;;;;;;259.15;70.63;;;;;;;;;;5118799;27;20527;-73
2023/01/25 07:14:28;;;;;;;249.13;65.45;;;;;;;;;;5117039;27;20814;-73
2023/01/25 07:16:56;;;;;;;245.70;62.88;;;;;;;;;;5121728;27;20199;-75
2023/01/25 07:19:30;;;;;;;253.00;66.75;;;;;;;;;;5137626;27;20560;-73
2023/01/25 07:21:58;;;;;;;254.48;68.85;;;;;;;;;;5137384;27;20568;-74
2023/01/25 07:24:28;;;;;;;257.00;71.20;;;;;;;;;;5135253;27;20195;-74
2023/01/25 07:26:59;;;;;;;256.25;71.53;;;;;;;;;;5132689;27;20199;-74
2023/01/25 07:29:28;;;;;;;276.75;65.10;;;;;;;;;;5116724;28;20228;-74
2023/01/25 07:31:56;;;;;;;252.90;65.18;;;;;;;;;;5118437;28;20200;-74
2023/01/25 07:34:23;;;;;;;257.08;65.82;;;;;;;;;;5118484;28;20208;-74
2023/01/25 07:36:52;;;;;;;265.08;73.97;;;;;;;;;;5118479;27;20193;-74
2023/01/25 07:39:19;;;;;;;258.85;72.38;;;;;;;;;;5127950;27;20201;-74
2023/01/25 07:41:47;;;;;;;251.32;64.40;;;;;;;;;;5125835;27;20196;-74
2023/01/25 07:44:25;;;;;;;245.38;62.88;;;;;;;;;;5124074;27;20283;-74
2023/01/25 07:46:55;;;;;;;252.15;66.50;;;;;;;;;;5138332;27;20485;-74
2023/01/25 07:49:28;;;;;;;253.95;70.80;;;;;;;;;;5118987;27;20247;-74
2023/01/25 07:51:56;;;;;;;259.98;74.07;;;;;;;;;;5117305;28;20205;-74
2023/01/25 07:54:24;;;;;;;245.13;65.78;;;;;;;;;;5119774;27;20283;-74
2023/01/25 07:57:10;;;;;;;258.40;67.78;;;;;;;;;;5116699;27;20217;-72
2023/01/25 07:59:39;;;;;;;246.10;65.57;;;;;;;;;;5120750;27;20201;-74
2023/01/25 08:02:16;;;;;;;251.82;66.15;;;;;;;;;;5128860;27;20208;-73
2023/01/25 08:04:44;;;;;;;257.30;68.43;;;;;;;;;;5122479;27;20322;-74
2023/01/25 08:07:22;;;;;;;256.98;71.05;;;;;;;;;;5126201;27;20205;-74
2023/01/25 08:09:54;;;;;;;255.57;68.18;;;;;;;;;;5124946;27;20204;-74
2023/01/25 08:12:24;;;;;;;241.55;65.45;;;;;;;;;;5115095;27;20313;-74
2023/01/25 08:15:00;;;;;;;251.77;67.40;;;;;;;;;;5122801;27;20201;-73
2023/01/25 08:17:32;;;;;;;254.93;70.65;;;;;;;;;;5129365;27;20198;-75
2023/01/25 08:20:03;;;;;;;252.32;70.38;;;;;;;;;;5132263;27;20253;-79
2023/01/25 08:22:39;;;;;;;260.58;67.78;;;;;;;;;;5126823;27;20212;-75
2023/01/25 08:25:11;;;;;;;257.90;68.85;;;;;;;;;;5123196;27;20263;-74
2023/01/25 08:27:39;;;;;;;263.58;71.85;;;;;;;;;;5126404;27;20253;-74
2023/01/25 08:30:08;;;;;;;263.58;72.28;;;;;;;;;;5116348;28;20333;-74
2023/01/25 08:32:37;;;;;;;262.55;72.10;;;;;;;;;;5115283;28;20220;-73
2023/01/25 08:35:05;;;;;;;251.13;72.40;;;;;;;;;;5121096;27;20238;-75
2023/01/25 08:37:37;;;;;;;303.38;84.93;;;;;;;;;;5122403;27;20192;-74
2023/01/25 08:40:06;;;;;;;294.58;95.72;;;;;;;;;;5121391;27;20339;-74
2023/01/25 08:42:41;;;;;;;275.83;80.28;;;;;;;;;;5124414;27;20193;-74
2023/01/25 08:45:09;;;;;;;262.13;73.35;;;;;;;;;;5113967;27;20200;-74
2023/01/25 08:47:40;;;;;;;253.40;67.40;;;;;;;;;;5126097;27;20200;-75
2023/01/25 08:50:09;;;;;;;256.45;71.18;;;;;;;;;;5115585;28;20205;-74
2023/01/25 08:52:37;;;;;;;280.50;84.32;;;;;;;;;;5113632;28;20228;-74
2023/01/25 08:55:10;;;;;;;260.27;66.60;;;;;;;;;;5117348;27;20236;-74
2023/01/25 08:57:39;;;;;;;254.95;67.40;;;;;;;;;;5124438;27;20226;-74
2023/01/25 09:00:14;;;;;;;258.38;71.80;;;;;;;;;;5119376;27;20206;-74
2023/01/25 09:02:57;;;;;;;259.17;70.45;;;;;;;;;;5122786;27;20333;-73
2023/01/25 09:08:14;;;;;;;253.38;71.38;;;;;;;;;;5121865;27;20291;-73
2023/01/25 09:10:51;;;;;;;247.75;68.57;;;;;;;;;;5122788;27;20613;-75
2023/01/25 09:13:21;;;;;;;247.50;68.68;;;;;;;;;;5115640;27;20231;-74
2023/01/25 09:15:50;;;;;;;257.95;71.32;;;;;;;;;;5122341;27;20250;-74
2023/01/25 09:18:21;;;;;;;252.98;69.90;;;;;;;;;;5130680;27;20228;-74
2023/01/25 09:20:55;;;;;;;272.00;76.88;;;;;;;;;;5120628;27;20288;-74
2023/01/25 09:26:30;;;;;;;257.35;70.18;;;;;;;;;;5124545;27;20195;-73
2023/01/25 09:34:52;;;;;;;260.15;69.60;;;;;;;;;;5115311;27;20594;-72
2023/01/25 09:37:21;;;;;;;259.50;69.05;;;;;;;;;;5124303;27;20193;-72
2023/01/25 09:39:54;;;;;;;256.98;72.85;;;;;;;;;;5126471;27;20188;-72
2023/01/25 09:42:40;;;;;;;265.55;70.20;;;;;;;;;;5133182;27;20512;-72
2023/01/25 09:45:34;;;;;;;261.48;65.63;;;;;;;;;;5124559;27;20207;-72
2023/01/25 09:48:14;;;;;;;247.88;66.93;;;;;;;;;;5132694;27;20265;-72
2023/01/25 09:51:03;;;;;;;247.23;66.70;;;;;;;;;;5126888;27;20235;-72
2023/01/25 09:53:39;;;;;;;265.67;67.93;;;;;;;;;;5123907;27;20492;-72
2023/01/25 09:56:11;;;;;;;271.52;74.18;;;;;;;;;;5117699;28;20822;-73
2023/01/25 09:58:41;;;;;;;323.02;80.70;;;;;;;;;;5124372;27;20284;-73
2023/01/25 10:01:23;;;;;;;317.80;75.32;;;;;;;;;;5126149;27;20286;-73
2023/01/25 10:03:55;;;;;;;308.95;77.82;;;;;;;;;;5130890;27;20592;-72
2023/01/25 10:06:32;;;;;;;321.40;82.00;;;;;;;;;;5127822;27;20719;-72
2023/01/25 10:09:04;;;;;;;315.70;78.75;;;;;;;;;;5132297;27;20204;-72
2023/01/25 10:11:33;;;;;;;316.75;77.30;;;;;;;;;;5123685;27;20200;-72
2023/01/25 10:14:01;;;;;;;309.92;74.85;;;;;;;;;;5134407;27;20630;-72
2023/01/25 10:16:37;;;;;;;322.77;81.25;;;;;;;;;;5123821;27;20203;-72
2023/01/25 10:19:37;;;;;;;318.15;77.45;;;;;;;;;;5120232;27;20278;-73
2023/01/25 10:22:19;;;;;;;309.33;74.40;;;;;;;;;;5129526;27;20288;-73
2023/01/25 10:25:13;;;;;;;308.33;71.43;;;;;;;;;;5121499;27;20189;-73
2023/01/25 10:27:48;;;;;;;320.40;78.57;;;;;;;;;;5127466;27;20293;-72
2023/01/25 10:30:32;;;;;;;309.63;76.22;;;;;;;;;;5113484;28;20201;-73
2023/01/25 10:33:01;;;;;;;314.77;77.95;;;;;;;;;;5115082;28;20204;-71
2023/01/25 10:35:30;;;;;;;318.42;75.30;;;;;;;;;;5126809;27;20288;-73
2023/01/25 10:38:05;;;;;;;308.95;72.30;;;;;;;;;;5134173;27;20199;-73
2023/01/25 10:40:36;;;;;;;319.40;77.55;;;;;;;;;;5126663;27;20295;-71
2023/01/25 10:43:21;;;;;;;312.52;74.25;;;;;;;;;;5123852;27;20718;-73
2023/01/25 10:45:56;;;;;;;307.95;74.63;;;;;;;;;;5126355;27;20207;-73
2023/01/25 10:48:33;;;;;;;311.10;78.47;;;;;;;;;;5121323;27;20607;-73
2023/01/25 10:51:06;;;;;;;305.85;74.35;;;;;;;;;;5122827;27;20246;-73
2023/01/25 10:54:05;;;;;;;320.80;75.18;;;;;;;;;;5120236;27;20224;-73
2023/01/25 10:56:39;;;;;;;318.70;79.90;;;;;;;;;;5128193;27;20197;-73
2023/01/25 10:59:15;;;;;;;314.92;73.75;;;;;;;;;;5123041;27;20292;-73
2023/01/25 11:01:52;;;;;;;315.65;79.05;;;;;;;;;;5124499;27;20231;-73
2023/01/25 11:04:47;;;;;;;317.23;76.10;;;;;;;;;;5131061;27;20315;-73
2023/01/25 11:07:35;;;;;;;317.00;74.93;;;;;;;;;;5133613;27;20251;-73
2023/01/25 11:10:33;;;;;;;321.80;75.57;;;;;;;;;;5133510;27;20200;-74
2023/01/25 11:13:23;;;;;;;318.65;81.70;;;;;;;;;;5120666;27;20197;-73
2023/01/25 11:18:56;;;;;;;262.05;77.43;;;;;;;;;;5115402;28;20193;-72
2023/01/25 11:21:25;;;;;;;253.32;67.47;;;;;;;;;;5117383;28;20203;-73
2023/01/25 11:24:04;;;;;;;303.48;75.60;;;;;;;;;;5117381;28;20237;-73
2023/01/25 11:26:45;;;;;;;311.65;76.43;;;;;;;;;;5132781;27;20199;-73
2023/01/25 11:29:15;;;;;;;306.73;75.25;;;;;;;;;;5133716;27;20201;-73
2023/01/25 11:31:50;;;;;;;273.55;77.63;;;;;;;;;;5138217;27;20261;-72
2023/01/25 11:34:21;;;;;;;255.18;69.22;;;;;;;;;;5123206;27;20710;-73
2023/01/25 11:37:16;;;;;;;317.92;75.82;;;;;;;;;;5118531;28;20305;-75
2023/01/25 11:39:54;;;;;;;299.38;75.28;;;;;;;;;;5116647;28;20615;-72
2023/01/25 11:42:33;;;;;;;325.50;79.22;;;;;;;;;;5120712;27;20193;-73
2023/01/25 11:45:16;;;;;;;318.38;79.97;;;;;;;;;;5129127;27;20374;-73
2023/01/25 11:48:06;;;;;;;319.38;83.15;;;;;;;;;;5126005;27;20222;-72
2023/01/25 11:50:38;;;;;;;268.60;71.22;;;;;;;;;;5124547;27;20234;-72
2023/01/25 11:53:26;;;;;;;266.85;72.75;;;;;;;;;;5138293;27;20201;-72
2023/01/25 11:56:05;;;;;;;254.10;66.65;;;;;;;;;;5121403;27;20196;-73
2023/01/25 11:58:50;;;;;;;263.75;69.60;;;;;;;;;;5116449;28;20208;-73
2023/01/25 12:01:23;;;;;;;275.08;78.70;;;;;;;;;;5116551;28;20228;-71
2023/01/25 12:04:19;;;;;;;266.02;71.38;;;;;;;;;;5119970;27;20585;-72
2023/01/25 12:07:02;;;;;;;258.02;73.43;;;;;;;;;;5103371;27;20201;-73
2023/01/25 12:09:50;;;;;;;261.05;73.32;;;;;;;;;;5128625;27;20197;-72
2023/01/25 12:12:33;;;;;;;273.05;75.72;;;;;;;;;;5109875;28;20201;-73
2023/01/25 12:15:22;;;;;;;260.23;71.28;;;;;;;;;;5097613;28;20713;-72
2023/01/25 12:17:57;;;;;;;252.90;70.07;;;;;;;;;;5110011;28;20454;-72
2023/01/25 12:20:40;;;;;;;275.00;76.95;;;;;;;;;;5114835;28;20197;-73
2023/01/25 12:23:31;;;;;;;278.85;74.93;;;;;;;;;;5115725;27;20193;-73
2023/01/25 12:26:11;;;;;;;270.80;78.15;;;;;;;;;;5088773;27;20262;-73
2023/01/25 12:29:22;;;;;;;306.60;75.60;;;;;;;;;;5127230;27;20214;-73
2023/01/25 12:32:07;;;;;;;271.80;74.63;;;;;;;;;;5121198;27;20441;-73
2023/01/25 12:34:38;;;;;;;265.63;77.72;;;;;;;;;;5099098;28;20216;-73
2023/01/25 12:37:12;;;;;;;265.88;68.95;;;;;;;;;;5128955;27;20196;-73
2023/01/25 12:39:48;;;;;;;268.33;74.18;;;;;;;;;;5130837;27;20208;-71
2023/01/25 12:42:35;;;;;;;257.75;68.15;;;;;;;;;;5133262;27;20203;-72
2023/01/25 12:45:20;;;;;;;258.02;68.50;;;;;;;;;;5128537;27;20192;-73
2023/01/25 12:48:00;;;;;;;266.48;70.78;;;;;;;;;;5123088;27;20234;-74
2023/01/25 12:50:44;;;;;;;261.50;72.63;;;;;;;;;;5123271;27;20204;-74
2023/01/25 12:53:28;;;;;;;262.73;75.88;;;;;;;;;;5120302;27;20193;-73
2023/01/25 12:56:24;;;;;;;260.77;74.25;;;;;;;;;;5113227;27;20596;-74
2023/01/25 12:58:57;;;;;;;285.58;80.38;;;;;;;;;;5118346;27;20261;-73
2023/01/25 13:01:48;;;;;;;267.58;79.50;;;;;;;;;;5120906;27;20215;-73
2023/01/25 13:04:41;;;;;;;272.42;79.32;;;;;;;;;;5114981;27;20193;-73
2023/01/25 13:07:45;;;;;;;273.55;81.03;;;;;;;;;;5125918;27;20200;-73
2023/01/25 13:10:27;;;;;;;272.10;76.90;;;;;;;;;;5123528;27;20269;-73
2023/01/25 13:15:46;;;;;;;267.30;73.95;;;;;;;;;;5119937;27;20228;-75
2023/01/25 13:18:36;;;;;;;256.85;78.63;;;;;;;;;;5119795;27;20196;-73
2023/01/25 13:21:07;;;;;;;307.90;88.77;;;;;;;;;;5120394;27;20540;-74
2023/01/25 13:27:24;;;;;;;;;;;;;;;;;;;;;
2023/01/25 13:32:46;;;;;;;261.60;76.97;;;;;;;;;;5135398;27;20212;-74
2023/01/25 13:42:11;;;;;;;254.40;70.28;;;;;;;;;;5115447;27;20212;-72
2023/01/25 13:45:00;;;;;;;261.13;74.95;;;;;;;;;;5148665;27;20246;-72
2023/01/25 13:47:37;;;;;;;253.32;70.20;;;;;;;;;;5139049;27;20512;-73
2023/01/25 13:50:22;;;;;;;265.65;71.50;;;;;;;;;;5150463;27;20238;-72
2023/01/25 13:52:59;;;;;;;270.17;75.88;;;;;;;;;;5144856;27;20207;-72
2023/01/25 13:55:41;;;;;;;261.35;79.68;;;;;;;;;;5146324;27;20226;-72
2023/01/25 13:58:35;;;;;;;277.75;68.90;;;;;;;;;;5153684;27;20299;-72
2023/01/25 14:01:15;;;;;;;255.88;69.25;;;;;;;;;;5145207;27;20201;-72
2023/01/25 14:03:46;;;;;;;268.30;74.82;;;;;;;;;;5143685;27;20201;-73
2023/01/25 14:09:13;;;;;;;260.02;68.35;;;;;;;;;;5140615;27;20200;-73
2023/01/25 14:11:51;;;;;;;263.27;72.53;;;;;;;;;;5145678;27;20745;-74
2023/01/25 14:14:26;;;;;;;253.65;72.80;;;;;;;;;;5154776;27;20215;-74
2023/01/25 14:17:17;;;;;;;258.65;69.45;;;;;;;;;;5149641;27;20214;-74
2023/01/25 14:19:48;;;;;;;261.05;70.13;;;;;;;;;;5137302;27;20208;-73
2023/01/25 14:22:21;;;;;;;256.58;66.13;;;;;;;;;;5130013;27;20295;-74
2023/01/25 14:25:06;;;;;;;266.70;71.47;;;;;;;;;;5126340;27;20385;-74
2023/01/25 14:27:34;;;;;;;253.88;71.38;;;;;;;;;;5137976;27;20204;-74
2023/01/25 14:30:18;;;;;;;265.25;79.47;;;;;;;;;;5136792;27;20204;-75
2023/01/25 14:32:54;;;;;;;252.27;69.68;;;;;;;;;;5134748;27;20200;-73
2023/01/25 14:38:52;;;;;;;273.58;77.68;;;;;;;;;;5128772;27;20280;-73
2023/01/25 14:41:35;;;;;;;265.20;73.78;;;;;;;;;;5124665;27;20188;-74
2023/01/25 14:44:21;;;;;;;265.60;70.47;;;;;;;;;;5137104;27;20212;-72
2023/01/25 14:47:01;;;;;;;273.15;71.45;;;;;;;;;;5148427;27;20204;-74
2023/01/25 14:49:33;;;;;;;268.77;72.38;;;;;;;;;;5138316;27;20218;-73
2023/01/25 14:55:00;;;;;;;261.63;73.22;;;;;;;;;;5141866;27;20231;-73
2023/01/25 14:57:45;;;;;;;279.30;73.70;;;;;;;;;;5124974;27;20739;-73
2023/01/25 15:00:21;;;;;;;273.88;76.47;;;;;;;;;;5137133;27;20204;-74
2023/01/25 15:02:55;;;;;;;274.48;68.85;;;;;;;;;;5130720;27;20231;-74
2023/01/25 15:05:41;;;;;;;265.73;67.57;;;;;;;;;;5137202;27;20496;-74
2023/01/25 15:08:33;;;;;;;263.13;68.65;;;;;;;;;;5154104;27;20212;-74
2023/01/25 15:11:48;;;;;;;263.67;64.90;;;;;;;;;;5136767;27;20200;-75
2023/01/25 15:14:29;;;;;;;266.67;69.57;;;;;;;;;;5133254;27;20204;-73
2023/01/25 15:17:07;;;;;;;267.92;70.15;;;;;;;;;;5141718;27;20225;-74
2023/01/25 15:19:40;;;;;;;270.60;72.32;;;;;;;;;;5125206;27;20197;-74
2023/01/25 15:22:27;;;;;;;282.42;68.93;;;;;;;;;;5130573;27;20219;-74